24 hours and counting

Not quite sure make of this but it is looking better compared to this morning:

ESSA 251010Z 251818 18003KT 9999 FEW015 BECMG 2124 4000 BR BECMG 0003 0300 FG VV002 TEMPO 0308 0700 PRFG FEW002 BECMG 0810 9000 BR FEW004 SCT020=

Advertisements

4 Responses to 24 hours and counting

  1. tupplurad says:

    Haha… längsta tafen jag läst på länge. Men det blir säkert bra. Fuktdis och frysta grodor. “FLYGBART säger PC. Hm… säger kontrollanten”

  2. Feffe says:

    Lycka till !!! Hoppas M har lärt dig väl 🙂

  3. Gerth says:

    Spänningen är oliiiiidlig på alla fronter…

  4. tupplurad says:

    The spänning is verkligen oliiiiidlig.

Leave a Reply

Fill in your details below or click an icon to log in:

WordPress.com Logo

You are commenting using your WordPress.com account. Log Out / Change )

Twitter picture

You are commenting using your Twitter account. Log Out / Change )

Facebook photo

You are commenting using your Facebook account. Log Out / Change )

Google+ photo

You are commenting using your Google+ account. Log Out / Change )

Connecting to %s

%d bloggers like this: